Terminal Aerodrome Forecast
Issued by NWS

Home | Current Version | Previous Version | Text Only | Print | Product List | Glossary On
Versions: 1 2 3 4 5 6 7 8 9 10 11 12
000
FTUS46 KMTR 292300
TAFSNS
TAF
KSNS 292339Z 3000/3024 29008KT P6SM SKC
     FM300400 VRB03KT P6SM SKC
     FM301200 VRB03KT 6SM BR SCT007 BKN012
     FM301700 26006KT P6SM SKC=

USA.gov is the U.S. government's official web portal to all federal, state and local government web resources and services.